This is the latest recevied weather packets stored in our database for station/object KM4KMS. If no packets are shown the sender has not sent any weather packets the latest 10 day(s).
| Time | Temp. | Humidity | Pressure | Rain* | Wind** | Luminosity | Snow |
|---|---|---|---|---|---|---|---|
| 1778106677 | 14.44° C | 66% | 1011.8 hPa | 0 mm | - | 62 W/m² | - |
| 1778106374 | 14.44° C | 65% | 1011.9 hPa | 0 mm | - | 63 W/m² | - |
| 1778106070 | 14.44° C | 68% | 1012 hPa | 0 mm | - | 59 W/m² | - |
| 1778105769 | 14.44° C | 67% | 1012.1 hPa | 0 mm | - | 58 W/m² | - |
| 1778105466 | 14.44° C | 66% | 1012 hPa | 0 mm | - | 35 W/m² | - |
| 1778105162 | 15° C | 64% | 1011.9 hPa | 0 mm | - | 49 W/m² | - |
| 1778104857 | 15° C | 65% | 1011.8 hPa | 0 mm | - | 75 W/m² | - |
| 1778104555 | 15° C | 65% | 1011.6 hPa | 0 mm | - | 95 W/m² | - |
| 1778104250 | 15° C | 63% | 1011.8 hPa | 0 mm | - | 88 W/m² | - |
| 1778103947 | 15° C | 62% | 1012.1 hPa | 0 mm | - | 78 W/m² | - |
| 1778103644 | 15° C | 62% | 1012.2 hPa | 0 mm | - | 70 W/m² | - |
| 1778103343 | 15° C | 64% | 1012 hPa | 0 mm | - | 86 W/m² | - |
| 1778103040 | 15° C | 65% | 1012 hPa | 0 mm | - | 116 W/m² | - |
| 1778102736 | 15° C | 62% | 1012.2 hPa | 0 mm | - | 81 W/m² | - |
| 1778102431 | 15° C | 61% | 1012.4 hPa | 0 mm | - | 71 W/m² | - |
| 1778102127 | 15° C | 59% | 1012.2 hPa | 0 mm | - | 95 W/m² | - |
| 1778101825 | 15° C | 64% | 1011.9 hPa | 0 mm | - | 111 W/m² | - |
| 1778101521 | 15° C | 60% | 1011.9 hPa | 0 mm | - | 154 W/m² | - |
| 1778101218 | 15° C | 62% | 1012.2 hPa | 0 mm | - | 166 W/m² | - |
| 1778100915 | 15° C | 62% | 1012.4 hPa | 0 mm | - | 118 W/m² | - |
| 1778100610 | 15.56° C | 63% | 1012.3 hPa | 0 mm | - | 161 W/m² | - |
| 1778100308 | 15.56° C | 64% | 1012.3 hPa | 0 mm | - | 186 W/m² | - |
| 1778100005 | 15.56° C | 64% | 1012.5 hPa | 0 mm | - | 167 W/m² | - |
| 1778099703 | 15.56° C | 60% | 1012.1 hPa | 0 mm | - | 170 W/m² | - |
| 1778099399 | 15.56° C | 61% | 1012 hPa | 0 mm | - | 220 W/m² | - |
* Rain latest hour (hover to see other rain measurements)
** Current wind speed in m/s (hover to see current wind gust speed)